createdAt,value
2022-10-22T00:01:27.312Z,15.90
2022-10-22T00:03:55.787Z,15.78
2022-10-22T00:06:24.143Z,15.40
2022-10-22T00:08:53.121Z,15.71
2022-10-22T00:11:21.720Z,15.71
2022-10-22T00:13:51.207Z,15.53
2022-10-22T00:16:19.766Z,15.45
2022-10-22T00:18:49.612Z,15.40
2022-10-22T00:21:18.192Z,15.43
2022-10-22T00:23:46.720Z,15.44
2022-10-22T00:26:15.660Z,15.38
2022-10-22T00:28:44.093Z,15.33
2022-10-22T00:31:12.417Z,15.35
2022-10-22T00:33:40.760Z,15.42
2022-10-22T00:36:11.079Z,15.29
2022-10-22T00:38:39.682Z,15.44
2022-10-22T00:41:09.033Z,15.24
2022-10-22T00:43:56.159Z,15.39
2022-10-22T00:46:24.482Z,15.36
2022-10-22T00:48:53.782Z,15.32
2022-10-22T00:51:26.782Z,14.97
2022-10-22T00:53:58.853Z,15.16
2022-10-22T00:56:27.570Z,15.19
2022-10-22T00:59:00.660Z,15.08
2022-10-22T01:01:32.371Z,15.15
2022-10-22T01:04:01.209Z,15.21
2022-10-22T01:06:34.418Z,15.04
2022-10-22T01:09:16.924Z,15.24
2022-10-22T01:12:00.728Z,15.25
2022-10-22T01:14:37.878Z,15.19
2022-10-22T01:17:10.855Z,14.85
2022-10-22T01:20:00.645Z,15.09
2022-10-22T01:22:37.301Z,14.93
2022-10-22T01:25:12.232Z,15.10
2022-10-22T01:27:55.672Z,14.81
2022-10-22T01:30:27.238Z,14.80
2022-10-22T01:32:59.711Z,15.02
2022-10-22T01:35:35.134Z,14.83
2022-10-22T01:38:07.394Z,14.82
2022-10-22T01:40:36.540Z,14.88
2022-10-22T01:43:08.213Z,15.04
2022-10-22T01:45:43.165Z,14.86
2022-10-22T01:48:31.350Z,14.90
2022-10-22T01:51:18.147Z,14.92
2022-10-22T01:53:55.175Z,14.70
2022-10-22T01:56:42.030Z,14.97
2022-10-22T01:59:19.174Z,14.86
2022-10-22T02:01:57.662Z,14.80
2022-10-22T02:04:31.759Z,15.00
2022-10-22T02:07:03.559Z,15.24
2022-10-22T02:09:34.023Z,15.12
2022-10-22T02:12:06.660Z,14.95
2022-10-22T02:14:40.904Z,15.28
2022-10-22T02:17:17.260Z,15.23
2022-10-22T02:19:53.799Z,15.41
2022-10-22T02:22:22.576Z,15.37
2022-10-22T02:24:51.249Z,15.30
2022-10-22T02:27:28.031Z,15.33
2022-10-22T02:30:05.590Z,15.65
2022-10-22T02:32:41.089Z,15.35
2022-10-22T02:35:14.641Z,15.61
2022-10-22T02:37:44.190Z,15.30
2022-10-22T02:40:13.312Z,15.45
2022-10-22T02:42:43.398Z,15.69
2022-10-22T02:45:12.173Z,15.65
2022-10-22T02:47:41.979Z,15.38
2022-10-22T02:50:10.975Z,15.26
2022-10-22T02:52:39.796Z,15.51
2022-10-22T02:55:09.455Z,15.42
2022-10-22T02:57:38.023Z,15.20
2022-10-22T03:00:09.086Z,15.48
2022-10-22T03:02:37.622Z,15.54
2022-10-22T03:05:08.885Z,15.48
2022-10-22T03:07:37.443Z,15.27
2022-10-22T03:10:07.360Z,15.30
2022-10-22T03:12:35.698Z,15.45
2022-10-22T03:15:04.173Z,15.45
2022-10-22T03:17:32.477Z,15.21
2022-10-22T03:20:00.837Z,15.15
2022-10-22T03:22:32.376Z,15.19
2022-10-22T03:25:05.118Z,15.10
2022-10-22T03:27:34.909Z,14.96
2022-10-22T03:30:04.029Z,15.29
2022-10-22T03:32:32.507Z,15.62
2022-10-22T03:35:01.056Z,15.08
2022-10-22T03:37:31.140Z,15.19
2022-10-22T03:39:59.825Z,15.37
2022-10-22T03:42:28.231Z,15.45
2022-10-22T03:44:56.628Z,13.94
2022-10-22T03:47:25.449Z,15.27
2022-10-22T03:49:53.961Z,15.38
2022-10-22T03:52:22.537Z,15.42
2022-10-22T03:54:52.243Z,15.36
2022-10-22T03:57:20.573Z,15.40
2022-10-22T03:59:49.131Z,15.21
2022-10-22T04:02:17.816Z,15.20
2022-10-22T04:04:46.119Z,15.31
2022-10-22T04:07:14.645Z,14.98
2022-10-22T04:09:43.131Z,15.24
2022-10-22T04:12:12.969Z,15.04
2022-10-22T04:14:41.490Z,15.30
2022-10-22T04:17:09.821Z,15.26
2022-10-22T04:19:38.293Z,15.13
2022-10-22T04:22:06.755Z,15.22
2022-10-22T04:24:35.031Z,15.15
2022-10-22T04:27:03.426Z,15.18
2022-10-22T04:29:33.073Z,14.98
2022-10-22T04:32:01.365Z,15.13
2022-10-22T04:34:30.601Z,14.87
2022-10-22T04:36:59.544Z,14.85
2022-10-22T04:39:27.868Z,15.18
2022-10-22T04:41:56.271Z,14.85
2022-10-22T04:44:24.535Z,15.01
2022-10-22T04:46:54.358Z,15.14
2022-10-22T04:49:22.806Z,14.96
2022-10-22T04:51:51.195Z,15.31
2022-10-22T04:54:19.468Z,15.38
2022-10-22T04:56:47.829Z,15.46
2022-10-22T04:59:16.294Z,15.22
2022-10-22T05:01:45.978Z,15.31
2022-10-22T05:04:18.176Z,15.25
2022-10-22T05:06:46.635Z,15.51
2022-10-22T05:09:18.258Z,15.43
2022-10-22T05:11:49.679Z,15.16
2022-10-22T05:14:21.152Z,15.51
2022-10-22T05:16:50.419Z,15.30
2022-10-22T05:19:23.999Z,15.03
2022-10-22T05:21:53.399Z,15.45
2022-10-22T05:24:22.033Z,15.44
2022-10-22T05:26:51.166Z,15.32
2022-10-22T05:29:20.186Z,15.20
2022-10-22T05:31:48.653Z,15.41
2022-10-22T05:34:17.472Z,15.31
2022-10-22T05:36:47.303Z,15.62
2022-10-22T05:39:15.697Z,15.46
2022-10-22T05:41:44.338Z,15.60
2022-10-22T05:44:13.832Z,15.47
2022-10-22T05:46:43.410Z,15.55
2022-10-22T05:49:15.682Z,15.28
2022-10-22T05:51:43.982Z,15.22
2022-10-22T05:54:20.851Z,14.93
2022-10-22T05:56:49.753Z,14.97
2022-10-22T05:59:18.104Z,15.29
2022-10-22T06:01:46.514Z,15.29
2022-10-22T06:04:16.209Z,15.06
2022-10-22T06:06:47.551Z,14.61
2022-10-22T06:09:21.461Z,15.13
2022-10-22T06:11:51.159Z,15.15
2022-10-22T06:14:20.381Z,15.02
2022-10-22T06:16:59.023Z,14.96
2022-10-22T06:19:31.171Z,15.19
2022-10-22T06:21:59.745Z,15.03
2022-10-22T06:24:29.477Z,15.12
2022-10-22T06:26:57.997Z,14.95
2022-10-22T06:29:26.528Z,15.11
2022-10-22T06:31:54.886Z,14.86
2022-10-22T06:34:23.532Z,15.04
2022-10-22T06:36:52.173Z,15.33
2022-10-22T06:39:20.891Z,15.19
2022-10-22T06:41:50.686Z,15.37
2022-10-22T06:44:21.309Z,15.19
2022-10-22T06:46:52.125Z,15.37
2022-10-22T06:49:22.176Z,15.63
2022-10-22T06:51:53.515Z,15.44
2022-10-22T06:54:22.573Z,15.40
2022-10-22T06:56:52.338Z,15.98
2022-10-22T06:59:20.707Z,15.99
2022-10-22T07:01:49.186Z,16.12
2022-10-22T07:04:17.807Z,16.17
2022-10-22T07:06:46.090Z,16.12
2022-10-22T07:09:14.708Z,15.74
2022-10-22T07:11:45.950Z,16.10
2022-10-22T07:14:16.127Z,15.83
2022-10-22T07:16:45.715Z,15.72
2022-10-22T07:19:14.863Z,15.49
2022-10-22T07:21:43.437Z,15.95
2022-10-22T07:24:12.233Z,15.98
2022-10-22T07:26:40.593Z,15.47
2022-10-22T07:29:10.047Z,15.97
2022-10-22T07:31:39.879Z,15.62
2022-10-22T07:34:08.289Z,15.49
2022-10-22T07:36:37.090Z,15.75
2022-10-22T07:39:06.259Z,15.78
2022-10-22T07:41:34.902Z,15.21
2022-10-22T07:44:03.289Z,15.80
2022-10-22T07:46:31.876Z,15.65
2022-10-22T07:49:01.582Z,15.93
2022-10-22T07:51:29.891Z,15.90
2022-10-22T07:53:58.283Z,15.85
2022-10-22T07:56:26.660Z,15.84
2022-10-22T07:58:55.130Z,15.87
2022-10-22T08:01:23.852Z,16.06
2022-10-22T08:03:52.323Z,15.92
2022-10-22T08:06:23.806Z,16.12
2022-10-22T08:08:52.320Z,16.41
2022-10-22T08:11:20.630Z,16.24
2022-10-22T08:13:49.083Z,16.59
2022-10-22T08:16:17.419Z,16.70
2022-10-22T08:18:45.813Z,16.51
2022-10-22T08:21:14.464Z,16.83
2022-10-22T08:23:44.254Z,16.89
2022-10-22T08:26:13.001Z,16.97
2022-10-22T08:28:41.641Z,17.25
2022-10-22T08:31:11.466Z,17.23
2022-10-22T08:33:40.095Z,17.07
2022-10-22T08:36:10.067Z,17.30
2022-10-22T08:38:38.708Z,17.16
2022-10-22T08:41:15.732Z,17.43
2022-10-22T08:44:35.915Z,17.65
2022-10-22T08:47:25.586Z,17.69
2022-10-22T08:49:57.020Z,17.71
2022-10-22T08:52:25.831Z,17.61
2022-10-22T08:54:58.293Z,17.72
2022-10-22T08:57:47.573Z,17.98
2022-10-22T09:00:25.228Z,17.91
2022-10-22T09:03:13.377Z,18.08
2022-10-22T09:05:52.870Z,17.73
2022-10-22T09:08:21.879Z,17.91
2022-10-22T09:10:55.709Z,18.41
2022-10-22T09:13:25.936Z,18.32
2022-10-22T09:15:58.724Z,18.33
2022-10-22T09:18:39.731Z,18.31
2022-10-22T09:21:20.381Z,18.43
2022-10-22T09:24:05.839Z,18.42
2022-10-22T09:26:38.781Z,18.33
2022-10-22T09:29:18.343Z,18.49
2022-10-22T09:31:46.988Z,18.38
2022-10-22T09:34:20.549Z,18.48
2022-10-22T09:36:48.924Z,18.71
2022-10-22T09:39:25.859Z,18.69
2022-10-22T09:41:54.390Z,18.78
2022-10-22T09:44:24.248Z,18.61
2022-10-22T09:46:52.729Z,18.68
2022-10-22T09:49:24.518Z,19.05
2022-10-22T09:51:56.737Z,19.09
2022-10-22T09:54:27.684Z,19.58
2022-10-22T09:57:00.080Z,19.44
2022-10-22T09:59:33.806Z,19.57
2022-10-22T10:02:19.579Z,19.60
2022-10-22T10:04:52.690Z,19.64
2022-10-22T10:07:25.053Z,19.75
2022-10-22T10:09:55.730Z,19.84
2022-10-22T10:12:39.522Z,19.69
2022-10-22T10:15:21.695Z,20.13
2022-10-22T10:18:02.230Z,19.83
2022-10-22T10:20:44.446Z,19.68
2022-10-22T10:23:24.428Z,19.58
2022-10-22T10:25:59.813Z,19.50
2022-10-22T10:28:46.399Z,19.80
2022-10-22T10:31:32.429Z,19.34
2022-10-22T10:34:16.052Z,19.74
2022-10-22T10:36:56.439Z,20.03
2022-10-22T10:39:35.762Z,20.39
2022-10-22T10:42:21.009Z,20.37
2022-10-22T10:45:11.961Z,20.42
2022-10-22T10:48:24.991Z,20.77
2022-10-22T10:51:08.564Z,20.29
2022-10-22T10:53:56.409Z,20.36
2022-10-22T10:56:41.321Z,20.67
2022-10-22T10:59:20.278Z,20.37
2022-10-22T11:02:11.234Z,20.29
2022-10-22T11:05:16.171Z,20.24
2022-10-22T11:07:55.770Z,20.39
2022-10-22T11:10:33.224Z,20.21
2022-10-22T11:13:12.781Z,20.03
2022-10-22T11:15:42.452Z,20.37
2022-10-22T11:18:22.396Z,20.67
2022-10-22T11:21:05.982Z,20.61
2022-10-22T11:23:42.005Z,20.33
2022-10-22T11:26:18.946Z,20.30
2022-10-22T11:28:53.712Z,20.35
2022-10-22T11:31:25.506Z,20.21
2022-10-22T11:34:28.410Z,20.45
2022-10-22T11:36:57.415Z,20.70
2022-10-22T11:39:45.255Z,20.82
2022-10-22T11:42:21.957Z,20.48
2022-10-22T11:45:01.677Z,20.81
2022-10-22T11:47:33.813Z,21.13
2022-10-22T11:50:22.836Z,21.51
2022-10-22T11:53:04.313Z,21.74
2022-10-22T11:55:48.164Z,21.66
2022-10-22T11:58:43.991Z,21.40
2022-10-22T12:01:25.641Z,21.46
2022-10-22T12:04:16.086Z,21.40
2022-10-22T12:07:00.469Z,21.26
2022-10-22T12:09:34.487Z,21.39
2022-10-22T12:12:15.842Z,21.11
2022-10-22T12:14:56.742Z,21.04
2022-10-22T12:17:26.815Z,20.79
2022-10-22T12:20:03.933Z,20.63
2022-10-22T12:22:37.263Z,20.73
2022-10-22T12:25:22.326Z,20.49
2022-10-22T12:27:55.743Z,20.92
2022-10-22T12:30:26.663Z,21.00
2022-10-22T12:33:00.456Z,21.08
2022-10-22T12:35:32.450Z,21.57
2022-10-22T12:38:06.404Z,21.79
2022-10-22T12:40:37.400Z,22.17
2022-10-22T12:43:14.585Z,22.10
2022-10-22T12:45:47.181Z,21.99
2022-10-22T12:48:20.435Z,21.89
2022-10-22T12:50:53.317Z,21.99
2022-10-22T12:53:27.192Z,22.05
2022-10-22T12:56:02.194Z,22.54
2022-10-22T12:58:35.187Z,22.51
2022-10-22T13:01:03.959Z,22.38
2022-10-22T13:03:38.644Z,22.24
2022-10-22T13:06:15.788Z,22.06
2022-10-22T13:08:44.314Z,21.92
2022-10-22T13:11:14.043Z,21.67
2022-10-22T13:13:47.026Z,21.44
2022-10-22T13:16:24.607Z,21.57
2022-10-22T13:18:54.512Z,21.42
2022-10-22T13:21:30.351Z,21.43
2022-10-22T13:24:01.922Z,21.37
2022-10-22T13:26:38.061Z,21.50
2022-10-22T13:29:14.657Z,21.22
2022-10-22T13:31:49.150Z,21.24
2022-10-22T13:34:20.869Z,21.70
2022-10-22T13:36:49.605Z,22.07
2022-10-22T13:39:20.279Z,22.23
2022-10-22T13:41:53.451Z,22.02
2022-10-22T13:44:22.077Z,21.79
2022-10-22T13:46:50.726Z,21.80
2022-10-22T13:49:22.749Z,22.03
2022-10-22T13:51:52.714Z,21.85
2022-10-22T13:54:25.421Z,21.88
2022-10-22T13:56:55.076Z,21.81
2022-10-22T13:59:25.559Z,21.82
2022-10-22T14:01:55.776Z,21.62
2022-10-22T14:04:24.181Z,21.32
2022-10-22T14:06:52.821Z,21.27
2022-10-22T14:09:21.662Z,21.39
2022-10-22T14:11:50.034Z,21.58
2022-10-22T14:14:19.791Z,21.47
2022-10-22T14:16:48.092Z,21.18
2022-10-22T14:19:19.083Z,21.19
2022-10-22T14:21:49.266Z,21.40
2022-10-22T14:24:18.066Z,21.23
2022-10-22T14:26:46.439Z,21.07
2022-10-22T14:29:14.750Z,21.44
2022-10-22T14:31:45.503Z,21.51
2022-10-22T14:34:16.406Z,21.50
2022-10-22T14:36:45.049Z,21.70
2022-10-22T14:39:13.787Z,21.53
2022-10-22T14:41:43.619Z,21.38
2022-10-22T14:44:14.470Z,21.45
2022-10-22T14:46:45.205Z,21.24
2022-10-22T14:49:13.701Z,21.23
2022-10-22T14:51:42.077Z,21.11
2022-10-22T14:54:10.312Z,20.74
2022-10-22T14:56:38.709Z,21.09
2022-10-22T14:59:07.038Z,20.84
2022-10-22T15:01:35.394Z,20.93
2022-10-22T15:04:05.497Z,20.82
2022-10-22T15:06:34.355Z,20.78
2022-10-22T15:09:02.865Z,20.53
2022-10-22T15:11:31.481Z,20.62
2022-10-22T15:13:59.922Z,20.70
2022-10-22T15:16:28.273Z,20.48
2022-10-22T15:18:57.299Z,20.41
2022-10-22T15:21:27.091Z,20.59
2022-10-22T15:23:55.662Z,20.38
2022-10-22T15:26:24.193Z,20.51
2022-10-22T15:28:52.570Z,20.44
2022-10-22T15:31:49.897Z,20.25
2022-10-22T15:34:27.606Z,19.93
2022-10-22T15:36:59.931Z,20.15
2022-10-22T15:39:31.077Z,20.09
2022-10-22T15:42:00.812Z,19.71
2022-10-22T15:44:31.622Z,19.72
2022-10-22T15:47:00.760Z,19.66
2022-10-22T15:49:30.387Z,19.71
2022-10-22T15:52:00.957Z,19.45
2022-10-22T15:54:31.736Z,19.37
2022-10-22T15:57:03.540Z,19.23
2022-10-22T15:59:31.929Z,19.10
2022-10-22T16:02:01.438Z,19.17
2022-10-22T16:04:29.881Z,19.04
2022-10-22T16:06:59.835Z,19.11
2022-10-22T16:09:29.023Z,18.59
2022-10-22T16:11:57.537Z,18.78
2022-10-22T16:14:26.064Z,18.55
2022-10-22T16:16:56.451Z,18.57
2022-10-22T16:19:25.814Z,18.53
2022-10-22T16:21:56.597Z,18.50
2022-10-22T16:24:26.687Z,18.21
2022-10-22T16:26:55.285Z,18.37
2022-10-22T16:29:23.640Z,18.22
2022-10-22T16:31:51.930Z,18.09
2022-10-22T16:34:20.334Z,17.84
2022-10-22T16:36:48.919Z,18.02
2022-10-22T16:39:17.489Z,17.85
2022-10-22T16:41:47.412Z,17.64
2022-10-22T16:44:15.757Z,17.74
2022-10-22T16:46:44.117Z,17.52
2022-10-22T16:49:14.309Z,17.53
2022-10-22T16:51:42.638Z,17.26
2022-10-22T16:54:14.137Z,17.30
2022-10-22T16:56:42.550Z,17.33
2022-10-22T16:59:12.242Z,17.28
2022-10-22T17:01:41.499Z,17.21
2022-10-22T17:04:10.794Z,17.23
2022-10-22T17:06:39.118Z,17.08
2022-10-22T17:09:07.514Z,16.97
2022-10-22T17:11:39.150Z,16.78
2022-10-22T17:14:11.265Z,16.83
2022-10-22T17:16:39.616Z,16.90
2022-10-22T17:19:08.331Z,16.85
2022-10-22T17:21:36.608Z,16.83
2022-10-22T17:24:05.336Z,16.56
2022-10-22T17:26:35.496Z,16.75
2022-10-22T17:29:04.187Z,16.54
2022-10-22T17:31:37.438Z,16.54
2022-10-22T17:34:08.608Z,16.56
2022-10-22T17:36:38.002Z,16.52
2022-10-22T17:39:09.000Z,16.32
2022-10-22T17:41:38.917Z,16.44
2022-10-22T17:44:09.910Z,16.32
2022-10-22T17:46:40.591Z,16.14
2022-10-22T17:49:18.459Z,16.15
2022-10-22T17:51:47.222Z,16.17
2022-10-22T17:54:16.052Z,16.22
2022-10-22T17:56:44.670Z,15.96
2022-10-22T17:59:17.150Z,15.96
2022-10-22T18:01:47.774Z,15.94
2022-10-22T18:04:19.157Z,16.10
2022-10-22T18:06:49.743Z,15.98
2022-10-22T18:09:19.978Z,15.96
2022-10-22T18:11:49.828Z,16.06
2022-10-22T18:14:19.511Z,15.76
2022-10-22T18:16:50.113Z,15.76
2022-10-22T18:19:22.411Z,15.59
2022-10-22T18:21:51.494Z,15.75
2022-10-22T18:24:20.410Z,15.83
2022-10-22T18:26:48.738Z,15.90
2022-10-22T18:29:20.750Z,15.76
2022-10-22T18:31:50.656Z,15.77
2022-10-22T18:34:21.721Z,15.16
2022-10-22T18:36:52.401Z,15.88
2022-10-22T18:39:20.813Z,15.94
2022-10-22T18:41:49.555Z,15.98
2022-10-22T18:44:18.493Z,15.68
2022-10-22T18:46:46.858Z,16.01
2022-10-22T18:49:20.183Z,15.96
2022-10-22T18:51:52.832Z,15.96
2022-10-22T18:54:23.903Z,15.81
2022-10-22T18:56:53.310Z,15.93
2022-10-22T18:59:24.121Z,16.03
2022-10-22T19:01:54.444Z,15.90
2022-10-22T19:04:24.417Z,15.92
2022-10-22T19:06:52.836Z,15.97
2022-10-22T19:09:29.653Z,15.88
2022-10-22T19:11:58.556Z,16.10
2022-10-22T19:14:27.230Z,16.03
2022-10-22T19:16:55.769Z,15.71
2022-10-22T19:19:25.645Z,16.11
2022-10-22T19:21:56.478Z,15.92
2022-10-22T19:24:24.851Z,15.94
2022-10-22T19:26:53.299Z,15.61
2022-10-22T19:29:22.572Z,15.84
2022-10-22T19:31:51.969Z,16.04
2022-10-22T19:34:21.425Z,15.77
2022-10-22T19:36:52.118Z,15.96
2022-10-22T19:39:20.713Z,15.81
2022-10-22T19:41:49.427Z,15.99
2022-10-22T19:44:17.908Z,15.88
2022-10-22T19:46:46.342Z,15.90
2022-10-22T19:49:18.959Z,15.69
2022-10-22T19:51:51.899Z,15.96
2022-10-22T19:54:20.611Z,15.88
2022-10-22T19:56:50.313Z,15.83
2022-10-22T19:59:22.875Z,15.42
2022-10-22T20:01:51.555Z,15.77
2022-10-22T20:04:20.850Z,15.73
2022-10-22T20:06:50.875Z,15.76
2022-10-22T20:09:19.283Z,15.57
2022-10-22T20:11:48.138Z,15.87
2022-10-22T20:14:16.654Z,15.89
2022-10-22T20:16:45.078Z,15.85
2022-10-22T20:19:16.352Z,15.79
2022-10-22T20:21:48.376Z,15.80
2022-10-22T20:24:18.455Z,15.61
2022-10-22T20:26:47.383Z,15.68
2022-10-22T20:29:18.951Z,15.84
2022-10-22T20:31:48.571Z,15.82
2022-10-22T20:34:17.464Z,15.72
2022-10-22T20:36:45.879Z,15.80
2022-10-22T20:39:19.067Z,15.71
2022-10-22T20:41:47.565Z,15.65
2022-10-22T20:44:19.124Z,15.85
2022-10-22T20:46:47.582Z,15.75
2022-10-22T20:49:17.049Z,15.96
2022-10-22T20:51:45.563Z,15.85
2022-10-22T20:54:17.745Z,15.91
2022-10-22T20:56:48.004Z,15.64
2022-10-22T20:59:17.353Z,15.83
2022-10-22T21:01:49.143Z,15.67
2022-10-22T21:04:19.542Z,15.96
2022-10-22T21:06:49.888Z,15.83
2022-10-22T21:09:20.406Z,15.93
2022-10-22T21:11:49.005Z,15.97
2022-10-22T21:14:20.203Z,15.91
2022-10-22T21:16:51.345Z,15.96
2022-10-22T21:19:22.543Z,16.00
2022-10-22T21:21:51.262Z,15.89
2022-10-22T21:24:24.606Z,15.94
2022-10-22T21:26:54.260Z,15.93
2022-10-22T21:29:22.936Z,15.74
2022-10-22T21:31:51.444Z,15.96
2022-10-22T21:34:20.410Z,15.92
2022-10-22T21:36:49.178Z,15.92
2022-10-22T21:39:18.007Z,15.92
2022-10-22T21:41:48.161Z,15.91
2022-10-22T21:44:16.941Z,15.75
2022-10-22T21:46:45.520Z,15.90
2022-10-22T21:49:14.431Z,15.54
2022-10-22T21:51:44.762Z,15.76
2022-10-22T21:54:13.591Z,15.82
2022-10-22T21:56:43.180Z,15.73
2022-10-22T21:59:13.186Z,15.97
2022-10-22T22:01:41.912Z,15.83
2022-10-22T22:04:10.420Z,15.89
2022-10-22T22:06:39.489Z,15.67
2022-10-22T22:09:10.740Z,15.96
2022-10-22T22:11:39.179Z,15.86
2022-10-22T22:14:07.464Z,15.81
2022-10-22T22:16:37.382Z,15.98
2022-10-22T22:19:08.219Z,15.78
2022-10-22T22:21:39.182Z,16.02
2022-10-22T22:24:10.924Z,15.89
2022-10-22T22:26:40.386Z,15.95
2022-10-22T22:29:08.860Z,15.99
2022-10-22T22:31:38.693Z,15.87
2022-10-22T22:34:09.668Z,16.04
2022-10-22T22:36:40.714Z,16.02
2022-10-22T22:39:13.403Z,15.98
2022-10-22T22:41:42.020Z,15.61
2022-10-22T22:44:12.959Z,16.01
2022-10-22T22:46:42.741Z,15.60
2022-10-22T22:49:11.710Z,16.03
2022-10-22T22:51:40.382Z,15.93
2022-10-22T22:54:08.905Z,16.02
2022-10-22T22:56:37.394Z,16.01
2022-10-22T22:59:07.092Z,15.98
2022-10-22T23:01:37.634Z,15.88
2022-10-22T23:04:12.731Z,15.85
2022-10-22T23:06:41.496Z,15.81
2022-10-22T23:09:13.078Z,15.45
2022-10-22T23:11:43.069Z,15.55
2022-10-22T23:14:14.822Z,15.64
2022-10-22T23:16:46.617Z,15.64
2022-10-22T23:19:19.169Z,15.55
2022-10-22T23:21:50.646Z,15.12
2022-10-22T23:24:22.678Z,15.29
2022-10-22T23:26:53.516Z,15.51
2022-10-22T23:29:24.515Z,15.41
2022-10-22T23:31:54.109Z,15.27
2022-10-22T23:34:26.305Z,15.16
2022-10-22T23:36:55.886Z,15.44
2022-10-22T23:39:27.727Z,14.96
2022-10-22T23:41:56.678Z,15.20
2022-10-22T23:44:26.311Z,15.14
2022-10-22T23:46:55.213Z,15.12
2022-10-22T23:49:24.961Z,14.98
2022-10-22T23:51:53.399Z,15.15
2022-10-22T23:54:21.745Z,15.24
2022-10-22T23:56:50.113Z,14.75
2022-10-22T23:59:19.555Z,15.06
